Time;durP1;ratioP1;P1;durP2;ratioP2;P2;SDS_P1;SDS_P2;PMS_P1;PMS_P2;Temp;Humidity;BMP_temperature;BMP_pressure;BME280_temperature;BME280_humidity;BME280_pressure;Samples;Min_cycle;Max_cycle;Signal;HPM_P1;HPM_P2
2021/05/25 00:02:02;;;;;;;3.15;0.80;;;9.80;99.90;;;;;;5094599;28;20261;-40
2021/05/25 00:04:30;;;;;;;1.80;1.20;;;9.90;99.90;;;;;;5095100;28;20198;-40
2021/05/25 00:06:58;;;;;;;2.35;0.90;;;9.90;99.90;;;;;;5094814;28;20249;-40
2021/05/25 00:09:26;;;;;;;1.30;0.95;;;10.00;99.90;;;;;;5094639;28;20214;-40
2021/05/25 00:11:54;;;;;;;1.17;0.73;;;10.00;99.90;;;;;;5094603;28;20210;-41
2021/05/25 00:14:21;;;;;;;2.42;1.10;;;10.00;99.90;;;;;;5094398;28;20697;-40
2021/05/25 00:16:49;;;;;;;1.35;1.13;;;10.00;99.90;;;;;;5094943;28;20244;-47
2021/05/25 00:19:17;;;;;;;1.23;1.02;;;10.00;99.90;;;;;;5094586;28;20253;-40
2021/05/25 00:21:47;;;;;;;2.75;1.17;;;10.10;99.90;;;;;;5094924;28;20610;-38
2021/05/25 00:24:15;;;;;;;1.58;0.95;;;10.10;99.90;;;;;;5094454;28;20214;-38
2021/05/25 00:26:42;;;;;;;1.17;1.08;;;10.10;99.90;;;;;;5094431;28;20234;-39
2021/05/25 00:29:10;;;;;;;2.28;1.08;;;10.10;99.90;;;;;;5094401;28;20210;-41
2021/05/25 00:31:38;;;;;;;1.20;1.08;;;10.10;99.90;;;;;;5094423;28;20336;-38
2021/05/25 00:34:05;;;;;;;1.15;1.05;;;10.10;99.90;;;;;;5094193;28;20319;-39
2021/05/25 00:36:35;;;;;;;4.30;1.55;;;10.10;99.90;;;;;;5094612;28;20718;-39
2021/05/25 00:39:05;;;;;;;1.98;0.90;;;10.00;99.90;;;;;;5094248;28;20257;-38
2021/05/25 00:41:33;;;;;;;1.70;0.93;;;10.00;99.90;;;;;;5094102;28;20272;-40
2021/05/25 00:44:01;;;;;;;0.88;0.82;;;10.00;99.90;;;;;;5094055;28;20659;-39
2021/05/25 00:46:28;;;;;;;1.33;0.85;;;10.00;99.90;;;;;;5093894;28;20661;-40
2021/05/25 00:48:56;;;;;;;1.70;1.20;;;10.00;99.90;;;;;;5094105;28;20321;-40
2021/05/25 00:51:23;;;;;;;1.83;1.10;;;10.00;99.90;;;;;;5094124;28;20242;-39
2021/05/25 00:53:51;;;;;;;1.17;0.98;;;10.00;99.90;;;;;;5093908;28;20269;-39
2021/05/25 00:56:19;;;;;;;0.82;0.82;;;10.00;99.90;;;;;;5093920;28;20300;-39
2021/05/25 00:58:47;;;;;;;1.02;0.90;;;10.00;99.90;;;;;;5093840;28;20685;-40
2021/05/25 01:01:14;;;;;;;1.63;1.02;;;10.00;99.90;;;;;;5093520;28;20238;-42
2021/05/25 01:03:42;;;;;;;2.38;0.63;;;9.90;99.90;;;;;;5093109;28;20203;-40
2021/05/25 01:06:10;;;;;;;3.00;1.20;;;10.00;99.90;;;;;;5093750;28;20210;-42
2021/05/25 01:08:39;;;;;;;1.00;0.90;;;9.90;99.90;;;;;;5093554;28;20214;-40
2021/05/25 01:11:10;;;;;;;0.90;0.82;;;9.90;99.90;;;;;;5093478;28;20689;-40
2021/05/25 01:13:45;;;;;;;2.05;1.00;;;10.00;99.90;;;;;;5093555;28;20284;-42
2021/05/25 01:16:13;;;;;;;0.80;0.80;;;10.00;99.90;;;;;;5093693;28;20244;-40
2021/05/25 01:18:41;;;;;;;1.40;0.80;;;10.00;99.90;;;;;;5093526;28;20367;-41
2021/05/25 01:21:10;;;;;;;0.77;0.77;;;10.00;99.90;;;;;;5093412;28;20290;-40
2021/05/25 01:23:40;;;;;;;3.10;1.00;;;10.00;99.90;;;;;;5093608;28;20210;-40
2021/05/25 01:26:08;;;;;;;1.33;0.80;;;10.00;99.90;;;;;;5093243;28;20249;-40
2021/05/25 01:28:37;;;;;;;1.77;1.05;;;10.00;99.90;;;;;;5093111;28;20700;-39
2021/05/25 01:31:05;;;;;;;0.90;0.90;;;10.10;99.90;;;;;;5093367;28;20254;-40
2021/05/25 01:33:36;;;;;;;2.83;1.00;;;10.00;99.90;;;;;;5093084;28;20273;-40
2021/05/25 01:36:05;;;;;;;0.82;0.77;;;10.10;99.90;;;;;;5093165;28;20210;-43
2021/05/25 01:38:33;;;;;;;1.95;1.00;;;10.00;99.90;;;;;;5093214;28;20203;-40
2021/05/25 01:41:02;;;;;;;1.50;1.05;;;10.00;99.90;;;;;;5093274;28;20210;-40
2021/05/25 01:43:30;;;;;;;2.63;1.98;;;10.10;99.90;;;;;;5093095;28;20199;-40
2021/05/25 01:45:58;;;;;;;4.13;1.67;;;10.10;99.90;;;;;;5093107;28;20331;-40
2021/05/25 01:48:26;;;;;;;2.03;1.38;;;10.10;99.90;;;;;;5093033;28;20303;-40
2021/05/25 01:50:53;;;;;;;1.10;0.90;;;10.10;99.90;;;;;;5093197;28;20206;-40
2021/05/25 01:53:24;;;;;;;2.35;1.08;;;10.10;99.90;;;;;;5093331;28;20265;-40
2021/05/25 01:55:54;;;;;;;2.50;1.25;;;10.10;99.90;;;;;;5092911;28;20297;-40
2021/05/25 01:58:25;;;;;;;2.60;1.23;;;10.10;99.90;;;;;;5092826;28;20305;-40
2021/05/25 02:00:54;;;;;;;2.85;1.23;;;10.20;99.90;;;;;;5092656;28;20261;-41
2021/05/25 02:03:22;;;;;;;1.42;1.10;;;10.20;99.90;;;;;;5092702;28;20199;-41
2021/05/25 02:05:50;;;;;;;2.38;1.58;;;10.20;99.90;;;;;;5092618;28;20286;-40
2021/05/25 02:08:18;;;;;;;2.20;1.40;;;10.10;99.90;;;;;;5092503;28;20301;-40
2021/05/25 02:10:47;;;;;;;2.60;0.80;;;10.10;99.90;;;;;;5092463;28;20280;-42
2021/05/25 02:13:17;;;;;;;2.55;1.20;;;10.10;99.90;;;;;;5092143;28;20242;-40
2021/05/25 02:15:49;;;;;;;3.40;1.05;;;10.10;99.90;;;;;;5091496;28;20249;-40
2021/05/25 02:18:18;;;;;;;2.83;1.13;;;10.00;99.90;;;;;;5092299;28;20244;-40
2021/05/25 02:20:47;;;;;;;2.03;1.05;;;10.00;99.90;;;;;;5092381;28;20207;-39
2021/05/25 02:23:15;;;;;;;3.63;1.58;;;10.00;99.90;;;;;;5092367;28;20202;-41
2021/05/25 02:25:43;;;;;;;2.50;0.85;;;10.00;99.90;;;;;;5092331;28;20249;-40
2021/05/25 02:28:11;;;;;;;3.58;1.67;;;10.00;99.90;;;;;;5092325;28;20298;-39
2021/05/25 02:30:40;;;;;;;2.40;1.02;;;10.00;99.90;;;;;;5092557;28;20202;-41
2021/05/25 02:33:11;;;;;;;1.75;1.38;;;9.90;99.90;;;;;;5092101;28;20239;-39
2021/05/25 02:35:40;;;;;;;2.50;1.00;;;9.90;99.90;;;;;;5092445;28;20206;-39
2021/05/25 02:38:09;;;;;;;2.50;1.13;;;9.90;99.90;;;;;;5092180;28;20237;-40
2021/05/25 02:40:38;;;;;;;1.55;1.17;;;9.90;99.90;;;;;;5092354;28;20260;-40
2021/05/25 02:43:06;;;;;;;2.75;1.30;;;9.90;99.90;;;;;;5092422;28;20252;-39
2021/05/25 02:45:34;;;;;;;3.83;1.35;;;9.90;99.90;;;;;;5092020;28;20203;-39
2021/05/25 02:48:02;;;;;;;3.15;1.50;;;9.80;99.90;;;;;;5092214;28;20210;-39
2021/05/25 02:50:31;;;;;;;3.55;1.60;;;9.90;99.90;;;;;;5092058;28;20211;-39
2021/05/25 02:52:59;;;;;;;1.08;0.85;;;9.80;99.90;;;;;;5091821;28;20230;-39
2021/05/25 02:55:28;;;;;;;1.48;1.05;;;9.80;99.90;;;;;;5092076;28;20684;-39
2021/05/25 02:57:57;;;;;;;2.67;1.08;;;9.80;99.90;;;;;;5092060;28;20313;-39
2021/05/25 03:00:27;;;;;;;2.25;0.98;;;9.80;99.90;;;;;;5091900;28;20234;-40
2021/05/25 03:02:55;;;;;;;1.25;1.15;;;9.70;99.90;;;;;;5091861;28;20206;-39
2021/05/25 03:05:25;;;;;;;1.27;1.17;;;9.70;99.90;;;;;;5091836;28;20552;-39
2021/05/25 03:07:55;;;;;;;2.78;1.50;;;9.70;99.90;;;;;;5091937;28;20249;-40
2021/05/25 03:10:25;;;;;;;1.75;0.90;;;9.70;99.90;;;;;;5092202;28;20624;-39
2021/05/25 03:12:53;;;;;;;2.88;1.52;;;9.60;99.90;;;;;;5092028;28;20210;-39
2021/05/25 03:15:24;;;;;;;3.10;1.48;;;9.60;99.90;;;;;;5091743;28;20236;-39
2021/05/25 03:17:51;;;;;;;3.97;1.60;;;9.60;99.90;;;;;;5091881;28;20632;-39
2021/05/25 03:20:19;;;;;;;3.78;2.70;;;9.60;99.90;;;;;;5091743;28;20282;-40
2021/05/25 03:22:47;;;;;;;3.35;2.03;;;9.60;99.90;;;;;;5092044;28;20206;-39
2021/05/25 03:25:16;;;;;;;3.78;2.20;;;9.60;99.90;;;;;;5092085;28;20234;-40
2021/05/25 03:27:44;;;;;;;6.47;1.92;;;9.60;99.90;;;;;;5095751;28;20615;-40
2021/05/25 03:30:15;;;;;;;2.03;1.30;;;9.60;99.90;;;;;;5095273;28;20249;-40
2021/05/25 03:32:43;;;;;;;3.67;1.98;;;9.60;99.90;;;;;;5095610;28;20621;-39
2021/05/25 03:35:12;;;;;;;2.85;1.67;;;9.60;99.90;;;;;;5095228;28;20655;-40
2021/05/25 03:37:40;;;;;;;4.00;1.83;;;9.60;99.90;;;;;;5095383;28;20767;-39
2021/05/25 03:40:10;;;;;;;4.82;1.80;;;9.60;99.90;;;;;;5095278;28;20234;-40
2021/05/25 03:42:38;;;;;;;5.53;1.67;;;9.60;99.90;;;;;;5095147;28;20243;-39
2021/05/25 03:45:07;;;;;;;2.85;1.92;;;9.50;99.90;;;;;;5095594;28;20207;-39
2021/05/25 03:47:34;;;;;;;7.47;1.88;;;9.50;99.90;;;;;;5095321;28;20297;-40
2021/05/25 03:50:07;;;;;;;5.53;1.60;;;9.50;99.90;;;;;;5095248;28;20304;-39
2021/05/25 03:52:36;;;;;;;4.45;1.73;;;9.60;99.90;;;;;;5095222;28;20293;-39
2021/05/25 03:55:10;;;;;;;4.78;2.20;;;9.60;99.90;;;;;;5095075;28;20227;-41
2021/05/25 04:00:24;;;;;;;15.57;9.43;;;9.60;99.90;;;;;;5095164;28;20206;-39
2021/05/25 04:02:51;;;;;;;3.67;1.90;;;9.70;99.90;;;;;;5094713;28;20213;-39
2021/05/25 04:05:19;;;;;;;6.75;1.48;;;9.70;99.90;;;;;;5094551;28;20340;-39
2021/05/25 04:07:46;;;;;;;9.10;3.90;;;9.70;99.90;;;;;;5095039;28;20210;-40
2021/05/25 04:10:14;;;;;;;3.00;1.50;;;9.80;99.90;;;;;;5094851;28;20735;-39
2021/05/25 04:12:42;;;;;;;5.68;1.88;;;9.80;99.90;;;;;;5094734;28;20246;-39
2021/05/25 04:15:10;;;;;;;3.28;1.70;;;9.80;99.90;;;;;;5094606;28;20230;-40
2021/05/25 04:17:40;;;;;;;32.05;29.15;;;9.70;99.90;;;;;;5094900;28;20264;-43
2021/05/25 04:20:09;;;;;;;4.07;2.05;;;9.70;99.90;;;;;;5094297;28;20277;-40
2021/05/25 04:22:37;;;;;;;6.93;2.85;;;9.60;99.90;;;;;;5094713;28;20257;-40
2021/05/25 04:25:07;;;;;;;7.88;4.53;;;9.60;99.90;;;;;;5094695;28;20554;-41
2021/05/25 04:27:35;;;;;;;5.90;2.42;;;9.50;99.90;;;;;;5094548;28;20294;-41
2021/05/25 04:30:05;;;;;;;3.03;1.85;;;9.50;99.90;;;;;;5094460;28;20355;-41
2021/05/25 04:32:33;;;;;;;6.65;3.47;;;9.50;99.90;;;;;;5094445;28;20210;-43
2021/05/25 04:35:01;;;;;;;6.00;2.65;;;9.50;99.90;;;;;;5094250;28;20226;-41
2021/05/25 04:37:29;;;;;;;5.03;2.88;;;9.50;99.90;;;;;;5093245;28;20309;-41
2021/05/25 04:39:56;;;;;;;3.78;1.65;;;9.50;99.90;;;;;;5094256;28;20238;-41
2021/05/25 04:42:24;;;;;;;2.15;1.40;;;9.60;99.90;;;;;;5094475;28;20242;-41
2021/05/25 04:44:51;;;;;;;5.80;2.22;;;9.60;99.90;;;;;;5094254;28;20298;-42
2021/05/25 04:47:22;;;;;;;5.20;1.90;;;9.60;99.90;;;;;;5094173;28;20234;-43
2021/05/25 04:49:49;;;;;;;5.20;1.98;;;9.50;99.90;;;;;;5094465;28;20552;-41
2021/05/25 04:52:17;;;;;;;5.40;1.50;;;9.60;99.90;;;;;;5093871;28;20691;-42
2021/05/25 04:54:44;;;;;;;5.45;1.83;;;9.60;99.90;;;;;;5093934;28;20230;-41
2021/05/25 04:57:12;;;;;;;10.07;6.93;;;9.50;99.90;;;;;;5093899;28;20268;-41
2021/05/25 04:59:40;;;;;;;9.50;6.13;;;9.60;99.90;;;;;;5093697;28;20246;-42
2021/05/25 05:02:07;;;;;;;3.92;2.03;;;9.50;99.90;;;;;;5093643;28;20214;-42
2021/05/25 05:04:35;;;;;;;4.97;2.38;;;9.60;99.90;;;;;;5094000;28;20199;-42
2021/05/25 05:07:03;;;;;;;4.90;2.40;;;9.60;99.90;;;;;;5093792;28;20203;-41
2021/05/25 05:09:30;;;;;;;4.93;2.25;;;9.50;99.90;;;;;;5093599;28;20216;-41
2021/05/25 05:11:58;;;;;;;10.35;4.68;;;9.60;99.90;;;;;;5093758;28;20380;-42
2021/05/25 05:14:25;;;;;;;8.25;2.50;;;9.60;99.90;;;;;;5093441;28;20258;-43
2021/05/25 05:16:53;;;;;;;3.17;1.70;;;9.80;99.90;;;;;;5093302;28;20252;-41
2021/05/25 05:19:20;;;;;;;41.30;31.25;;;9.90;99.90;;;;;;5093447;28;20234;-41
2021/05/25 05:21:48;;;;;;;8.93;5.22;;;10.00;99.90;;;;;;5093522;28;20295;-41
2021/05/25 05:24:16;;;;;;;7.78;2.38;;;10.20;99.90;;;;;;5093302;28;20206;-43
2021/05/25 05:26:44;;;;;;;3.53;2.00;;;10.30;99.90;;;;;;5093302;28;20253;-41
2021/05/25 05:29:11;;;;;;;2.15;1.38;;;10.30;99.90;;;;;;5093405;28;20302;-41
2021/05/25 05:31:39;;;;;;;5.75;2.42;;;10.30;99.90;;;;;;5093478;28;20260;-41
2021/05/25 05:34:06;;;;;;;4.80;1.83;;;10.20;99.90;;;;;;5093246;28;20334;-41
2021/05/25 05:36:34;;;;;;;4.63;2.53;;;10.30;99.90;;;;;;5093131;28;20207;-41
2021/05/25 05:39:03;;;;;;;5.70;2.75;;;10.30;99.90;;;;;;5092943;28;20301;-41
2021/05/25 05:41:31;;;;;;;4.50;1.88;;;10.30;99.90;;;;;;5092917;28;20248;-43
2021/05/25 05:43:59;;;;;;;2.17;1.20;;;10.20;99.90;;;;;;5092832;28;20760;-41
2021/05/25 05:46:26;;;;;;;7.18;2.10;;;10.20;99.90;;;;;;5092986;28;20221;-41
2021/05/25 05:48:54;;;;;;;2.45;1.42;;;10.10;99.90;;;;;;5092606;28;20245;-54
2021/05/25 05:51:23;;;;;;;8.65;2.40;;;10.20;99.90;;;;;;5092711;28;20242;-40
2021/05/25 05:53:56;;;;;;;2.00;1.13;;;10.30;99.90;;;;;;5092732;28;20575;-41
2021/05/25 05:56:25;;;;;;;4.97;1.67;;;10.50;99.90;;;;;;5092882;28;20656;-40
2021/05/25 05:58:53;;;;;;;4.75;1.52;;;10.50;99.90;;;;;;5092679;28;20498;-40
2021/05/25 06:01:20;;;;;;;3.97;1.35;;;10.60;99.90;;;;;;5092706;28;20301;-41
2021/05/25 06:03:48;;;;;;;8.55;1.30;;;10.70;99.90;;;;;;5092804;28;20294;-40
2021/05/25 06:06:15;;;;;;;3.35;1.35;;;10.70;99.90;;;;;;5092468;28;20272;-40
2021/05/25 06:08:43;;;;;;;3.65;1.40;;;10.70;99.90;;;;;;5092832;28;20352;-41
2021/05/25 06:11:11;;;;;;;4.32;1.30;;;10.90;99.90;;;;;;5092875;28;20257;-41
2021/05/25 06:13:39;;;;;;;6.00;1.25;;;11.00;99.90;;;;;;5092699;28;20579;-41
2021/05/25 06:16:07;;;;;;;5.93;1.73;;;11.10;99.90;;;;;;5092492;28;20231;-41
2021/05/25 06:18:36;;;;;;;4.55;1.30;;;11.20;99.90;;;;;;5092576;28;20231;-41
2021/05/25 06:21:04;;;;;;;3.83;1.00;;;11.20;99.90;;;;;;5092367;28;20622;-41
2021/05/25 06:23:33;;;;;;;3.53;0.90;;;11.20;99.90;;;;;;5092692;28;20616;-41
2021/05/25 06:26:02;;;;;;;2.08;1.02;;;11.20;99.90;;;;;;5092537;28;20285;-40
2021/05/25 06:28:31;;;;;;;1.92;1.52;;;11.20;99.90;;;;;;5092344;28;20210;-40
2021/05/25 06:31:00;;;;;;;2.15;1.27;;;11.10;99.90;;;;;;5092432;28;20214;-40
2021/05/25 06:33:27;;;;;;;5.00;1.23;;;11.10;99.70;;;;;;5092189;28;20720;-41
2021/05/25 06:35:55;;;;;;;2.92;1.58;;;11.00;99.50;;;;;;5092386;28;20266;-41
2021/05/25 06:38:25;;;;;;;3.42;1.67;;;11.00;99.30;;;;;;5092209;28;20234;-41
2021/05/25 06:40:53;;;;;;;4.10;1.27;;;11.10;99.20;;;;;;5092145;28;20245;-41
2021/05/25 06:43:20;;;;;;;7.85;1.45;;;11.20;98.80;;;;;;5091871;28;20700;-41
2021/05/25 06:45:47;;;;;;;4.65;1.48;;;11.20;98.30;;;;;;5091761;28;20296;-42
2021/05/25 06:48:16;;;;;;;3.25;0.98;;;11.20;98.00;;;;;;5091636;28;20249;-42
2021/05/25 06:50:43;;;;;;;2.30;1.25;;;11.30;98.00;;;;;;5091643;28;20203;-44
2021/05/25 06:53:10;;;;;;;3.40;0.98;;;11.50;97.90;;;;;;5091722;28;20242;-43
2021/05/25 06:55:38;;;;;;;2.17;0.88;;;11.60;97.30;;;;;;5091723;28;20702;-41
2021/05/25 06:58:07;;;;;;;4.15;1.20;;;11.80;96.90;;;;;;5091820;28;20241;-42
2021/05/25 07:00:34;;;;;;;2.47;1.10;;;11.90;96.40;;;;;;5093135;28;20568;-42
2021/05/25 07:03:02;;;;;;;2.38;0.82;;;11.90;96.20;;;;;;5096259;28;20291;-39
2021/05/25 07:05:30;;;;;;;1.88;0.52;;;11.80;96.00;;;;;;5096115;28;20293;-42
2021/05/25 07:07:58;;;;;;;2.88;1.08;;;11.80;96.10;;;;;;5095977;28;20210;-41
2021/05/25 07:10:25;;;;;;;3.65;1.08;;;11.70;96.10;;;;;;5095933;28;20215;-40
2021/05/25 07:12:52;;;;;;;1.33;0.88;;;11.60;96.20;;;;;;5095848;28;20289;-42
2021/05/25 07:15:20;;;;;;;2.03;1.23;;;11.60;95.80;;;;;;5095560;28;20232;-41
2021/05/25 07:17:51;;;;;;;2.92;1.38;;;11.80;95.80;;;;;;5095873;28;20211;-43
2021/05/25 07:20:19;;;;;;;3.60;1.30;;;11.90;95.40;;;;;;5095449;28;20262;-40
2021/05/25 07:22:51;;;;;;;2.08;0.82;;;12.00;95.20;;;;;;5095540;28;20320;-40
2021/05/25 07:25:19;;;;;;;1.92;0.93;;;12.10;94.80;;;;;;5095439;28;20198;-40
2021/05/25 07:27:47;;;;;;;3.50;1.25;;;12.30;94.30;;;;;;5095291;28;20323;-42
2021/05/25 07:30:15;;;;;;;1.40;1.02;;;12.40;93.90;;;;;;5095629;28;20293;-40
2021/05/25 07:32:43;;;;;;;1.38;1.10;;;12.40;93.70;;;;;;5095128;28;20207;-40
2021/05/25 07:35:14;;;;;;;3.05;1.10;;;12.30;93.70;;;;;;5095316;28;20300;-39
2021/05/25 07:37:42;;;;;;;1.75;1.02;;;12.20;93.80;;;;;;5095297;28;20297;-39
2021/05/25 07:40:14;;;;;;;3.30;1.20;;;12.30;94.10;;;;;;5095250;28;20305;-40
2021/05/25 07:42:42;;;;;;;4.25;1.38;;;12.40;94.00;;;;;;5095447;28;20253;-39
2021/05/25 07:45:10;;;;;;;3.10;1.02;;;12.70;93.70;;;;;;5095137;28;20692;-39
2021/05/25 07:47:38;;;;;;;2.60;1.70;;;12.90;93.50;;;;;;5095144;28;20688;-40
2021/05/25 07:50:13;;;;;;;3.55;1.27;;;13.10;93.30;;;;;;5095141;28;20237;-40
2021/05/25 07:52:42;;;;;;;4.15;1.27;;;13.20;92.90;;;;;;5095107;28;20279;-46
2021/05/25 07:55:11;;;;;;;2.45;1.50;;;13.40;92.40;;;;;;5095233;28;20283;-42
2021/05/25 07:57:40;;;;;;;3.25;1.30;;;13.50;91.90;;;;;;5094911;28;20211;-41
2021/05/25 08:00:11;;;;;;;3.08;1.00;;;13.60;92.00;;;;;;5095032;28;20209;-41
2021/05/25 08:02:39;;;;;;;2.35;0.95;;;13.70;92.00;;;;;;5094880;28;20206;-41
2021/05/25 08:05:08;;;;;;;2.30;1.15;;;13.80;91.80;;;;;;5094599;28;20233;-41
2021/05/25 08:07:35;;;;;;;2.42;1.38;;;13.70;90.70;;;;;;5094892;28;20202;-41
2021/05/25 08:10:06;;;;;;;2.10;1.20;;;13.60;90.60;;;;;;5094823;28;20407;-41
2021/05/25 08:12:34;;;;;;;1.35;0.98;;;13.40;90.20;;;;;;5094704;28;20293;-40
2021/05/25 08:15:04;;;;;;;4.60;1.25;;;13.30;90.10;;;;;;5094256;28;20634;-41
2021/05/25 08:17:45;;;;;;;2.30;1.00;;;13.30;90.40;;;;;;5094230;28;20210;-42
2021/05/25 08:20:16;;;;;;;2.95;0.95;;;13.40;90.10;;;;;;5093995;28;20270;-43
2021/05/25 08:23:06;;;;;;;3.05;1.45;;;13.60;90.20;;;;;;5094254;28;20657;-43
2021/05/25 08:25:34;;;;;;;7.95;1.70;;;13.90;88.90;;;;;;5094173;28;20260;-42
2021/05/25 08:28:05;;;;;;;3.10;1.30;;;14.10;87.50;;;;;;5094313;28;20214;-41
2021/05/25 08:30:35;;;;;;;2.22;1.27;;;14.20;87.30;;;;;;5094309;28;20261;-41
2021/05/25 08:33:04;;;;;;;4.43;1.58;;;14.10;86.30;;;;;;5094332;28;20213;-42
2021/05/25 08:35:38;;;;;;;3.63;0.98;;;14.20;86.40;;;;;;5094252;28;20226;-41
2021/05/25 08:38:08;;;;;;;3.13;1.20;;;14.20;86.10;;;;;;5094193;28;20575;-42
2021/05/25 08:40:36;;;;;;;4.07;2.25;;;14.40;85.90;;;;;;5094378;28;20572;-43
2021/05/25 08:43:06;;;;;;;3.78;0.90;;;14.60;85.10;;;;;;5094221;28;20294;-43
2021/05/25 08:45:34;;;;;;;3.42;1.30;;;14.70;84.60;;;;;;5094007;28;20198;-41
2021/05/25 08:48:03;;;;;;;4.55;1.40;;;14.80;83.00;;;;;;5096024;28;20218;-41
2021/05/25 08:50:48;;;;;;;3.42;1.23;;;14.80;83.10;;;;;;5094177;28;20537;-41
2021/05/25 08:53:16;;;;;;;3.05;1.50;;;14.80;83.30;;;;;;5093997;28;20241;-40
2021/05/25 08:55:47;;;;;;;3.15;1.42;;;14.90;83.30;;;;;;5094274;28;20223;-41
2021/05/25 08:58:16;;;;;;;5.32;1.92;;;15.00;82.50;;;;;;5094102;28;20234;-41
2021/05/25 09:00:44;;;;;;;4.35;1.33;;;15.00;81.30;;;;;;5093831;28;20222;-41
2021/05/25 09:03:15;;;;;;;6.20;1.58;;;15.10;81.90;;;;;;5093883;28;20203;-43
2021/05/25 09:05:49;;;;;;;3.08;0.90;;;15.20;80.70;;;;;;5093684;28;20221;-41
2021/05/25 09:08:17;;;;;;;3.78;1.45;;;15.10;80.40;;;;;;5093807;28;20206;-42
2021/05/25 09:10:47;;;;;;;3.72;1.42;;;15.00;80.40;;;;;;5093525;28;20208;-40
2021/05/25 09:13:17;;;;;;;2.55;1.52;;;15.00;80.50;;;;;;5092894;28;20217;-43
2021/05/25 09:15:46;;;;;;;4.97;2.20;;;15.00;80.00;;;;;;5093367;28;20262;-39
2021/05/25 09:18:17;;;;;;;3.47;2.00;;;14.90;79.30;;;;;;5093118;28;20281;-39
2021/05/25 09:20:47;;;;;;;2.70;1.10;;;14.80;79.10;;;;;;5093390;28;20203;-39
2021/05/25 09:23:17;;;;;;;3.28;1.33;;;14.70;79.30;;;;;;5092834;28;20303;-39
2021/05/25 09:25:52;;;;;;;4.60;1.60;;;14.90;79.70;;;;;;5093186;28;20203;-39
2021/05/25 09:28:21;;;;;;;1.90;0.93;;;15.20;78.00;;;;;;5093075;28;20206;-42
2021/05/25 09:30:50;;;;;;;3.08;1.08;;;15.20;77.50;;;;;;5093649;28;20211;-40
2021/05/25 09:33:20;;;;;;;5.30;1.27;;;15.20;76.90;;;;;;5093812;28;20620;-40
2021/05/25 09:35:49;;;;;;;2.58;1.60;;;15.00;76.90;;;;;;5093285;28;20735;-40
2021/05/25 09:38:18;;;;;;;2.15;1.00;;;14.90;76.60;;;;;;5093607;28;20207;-41
2021/05/25 09:40:48;;;;;;;2.53;1.10;;;14.80;76.80;;;;;;5093678;28;20276;-41
2021/05/25 09:43:19;;;;;;;3.63;1.10;;;14.80;77.00;;;;;;5093193;28;20429;-42
2021/05/25 09:46:03;;;;;;;3.67;1.40;;;14.80;76.80;;;;;;5093032;28;20661;-43
2021/05/25 09:48:33;;;;;;;3.20;1.52;;;14.70;75.60;;;;;;5093104;28;20241;-43
2021/05/25 09:51:01;;;;;;;3.47;1.02;;;14.60;76.40;;;;;;5092790;28;20236;-41
2021/05/25 09:53:31;;;;;;;2.22;0.75;;;14.60;75.90;;;;;;5092842;28;20207;-41
2021/05/25 09:56:00;;;;;;;2.97;1.20;;;14.50;75.10;;;;;;5093224;28;20282;-40
2021/05/25 09:58:38;;;;;;;2.22;1.10;;;14.40;75.20;;;;;;5092695;28;20215;-40
2021/05/25 10:01:08;;;;;;;4.15;0.70;;;14.50;73.90;;;;;;5093021;28;20222;-40
2021/05/25 10:03:44;;;;;;;3.63;1.30;;;14.60;74.00;;;;;;5092735;28;20214;-41
2021/05/25 10:06:12;;;;;;;2.50;1.10;;;14.80;73.00;;;;;;5092552;28;20601;-41
2021/05/25 10:08:44;;;;;;;4.72;1.25;;;15.00;74.10;;;;;;5092613;28;20585;-41
2021/05/25 10:11:15;;;;;;;2.53;1.00;;;15.10;74.00;;;;;;5092470;28;20310;-41
2021/05/25 10:13:43;;;;;;;3.05;1.15;;;15.00;74.20;;;;;;5092450;28;20237;-41
2021/05/25 10:16:13;;;;;;;4.40;1.65;;;15.00;75.20;;;;;;5092014;28;20223;-40
2021/05/25 10:18:50;;;;;;;3.65;1.35;;;15.10;75.20;;;;;;5089649;28;20239;-42
2021/05/25 10:21:18;;;;;;;3.90;0.93;;;14.90;75.60;;;;;;5092182;28;20202;-44
2021/05/25 10:23:46;;;;;;;3.10;1.13;;;14.70;76.40;;;;;;5092478;28;20241;-42
2021/05/25 10:26:17;;;;;;;1.77;1.10;;;14.70;76.50;;;;;;5092041;28;20234;-43
2021/05/25 10:28:46;;;;;;;2.53;0.90;;;14.70;76.60;;;;;;5092109;28;20238;-43
2021/05/25 10:31:28;;;;;;;1.92;1.10;;;15.00;76.90;;;;;;5090719;28;20218;-43
2021/05/25 10:34:19;;;;;;;3.00;1.42;;;15.10;76.00;;;;;;5091548;28;20645;-46
2021/05/25 10:36:48;;;;;;;1.27;0.70;;;15.20;75.40;;;;;;5089520;28;20603;-43
2021/05/25 10:39:37;;;;;;;4.05;1.08;;;15.20;74.00;;;;;;5089827;28;20257;-45
2021/05/25 10:42:38;;;;;;;3.25;2.08;;;15.20;73.50;;;;;;5091720;28;20211;-43
2021/05/25 10:45:26;;;;;;;3.60;0.90;;;15.30;72.40;;;;;;5092122;28;20222;-45
2021/05/25 10:48:04;;;;;;;1.20;1.00;;;15.40;72.50;;;;;;5091885;28;20210;-44
2021/05/25 10:50:34;;;;;;;1.52;0.85;;;15.80;70.50;;;;;;5092031;28;20207;-44
2021/05/25 10:53:26;;;;;;;1.92;0.57;;;15.90;69.60;;;;;;5092125;28;20665;-43
2021/05/25 10:55:55;;;;;;;1.33;0.90;;;15.90;68.50;;;;;;5091255;28;20206;-41
2021/05/25 10:58:31;;;;;;;3.33;1.42;;;15.70;69.80;;;;;;5091673;28;20728;-43
2021/05/25 11:01:01;;;;;;;1.10;0.80;;;15.60;70.50;;;;;;5092159;28;20512;-42
2021/05/25 11:03:30;;;;;;;3.50;1.38;;;15.70;70.70;;;;;;5091904;28;20264;-43
2021/05/25 11:05:59;;;;;;;1.70;1.00;;;15.70;70.40;;;;;;5091957;28;20214;-41
2021/05/25 11:08:34;;;;;;;8.88;1.23;;;15.90;70.00;;;;;;5091779;28;20206;-43
2021/05/25 11:11:11;;;;;;;5.00;1.38;;;15.90;67.70;;;;;;5091760;28;20205;-39
2021/05/25 11:13:48;;;;;;;3.80;0.95;;;15.90;68.10;;;;;;5091591;28;20669;-42
2021/05/25 11:16:18;;;;;;;3.45;1.02;;;16.20;67.70;;;;;;5091592;28;20219;-47
2021/05/25 11:18:52;;;;;;;2.60;1.00;;;16.30;66.60;;;;;;5091355;28;20278;-45
2021/05/25 11:21:46;;;;;;;0.98;0.70;;;16.30;66.30;;;;;;5091484;28;20210;-47
2021/05/25 11:24:29;;;;;;;0.57;0.50;;;16.40;64.90;;;;;;5091608;28;20250;-43
2021/05/25 11:27:05;;;;;;;3.92;0.85;;;16.60;65.70;;;;;;5090970;28;20209;-42
2021/05/25 11:29:36;;;;;;;1.98;0.68;;;16.60;65.20;;;;;;5091361;28;20243;-41
2021/05/25 11:32:13;;;;;;;2.80;0.75;;;16.50;64.30;;;;;;5091520;28;20213;-42
2021/05/25 11:34:42;;;;;;;1.50;1.00;;;16.60;64.10;;;;;;5091612;28;20210;-41
2021/05/25 11:37:13;;;;;;;6.00;1.42;;;16.70;63.90;;;;;;5091383;28;20234;-42
2021/05/25 11:39:41;;;;;;;1.08;0.60;;;16.90;63.20;;;;;;5091516;28;20238;-43
2021/05/25 11:42:11;;;;;;;5.60;1.00;;;17.00;62.30;;;;;;5091499;28;20214;-42
2021/05/25 11:44:41;;;;;;;2.72;0.95;;;16.90;61.40;;;;;;5091801;28;20278;-43
2021/05/25 11:47:09;;;;;;;3.45;0.80;;;16.70;61.70;;;;;;5093382;28;20247;-42
2021/05/25 11:49:39;;;;;;;1.75;0.70;;;16.80;62.00;;;;;;5095297;28;20203;-46
2021/05/25 11:52:33;;;;;;;1.27;0.70;;;16.80;61.70;;;;;;5095996;28;20302;-45
2021/05/25 11:55:04;;;;;;;2.20;0.90;;;17.00;60.30;;;;;;5076766;28;20218;-42
2021/05/25 11:57:34;;;;;;;0.90;0.57;;;16.90;60.60;;;;;;5095536;28;20226;-42
2021/05/25 12:00:06;;;;;;;2.50;0.85;;;16.70;58.60;;;;;;5095671;28;20233;-41
2021/05/25 12:02:34;;;;;;;1.50;0.75;;;16.50;59.20;;;;;;5094785;28;20218;-42
2021/05/25 12:05:09;;;;;;;3.63;0.80;;;16.50;59.00;;;;;;5094837;28;20217;-45
2021/05/25 12:07:39;;;;;;;1.83;0.52;;;16.50;59.10;;;;;;5094912;28;20241;-42
2021/05/25 12:10:09;;;;;;;3.17;0.82;;;16.40;59.10;;;;;;5094800;28;20272;-44
2021/05/25 12:12:40;;;;;;;1.92;0.70;;;16.10;59.00;;;;;;5094926;28;20271;-43
2021/05/25 12:15:13;;;;;;;1.58;0.60;;;16.00;59.60;;;;;;5095272;28;20242;-43
2021/05/25 12:17:43;;;;;;;2.80;0.85;;;16.20;59.70;;;;;;5094744;28;20313;-43
2021/05/25 12:20:17;;;;;;;1.20;0.70;;;16.40;59.20;;;;;;5094881;28;20266;-43
2021/05/25 12:22:47;;;;;;;2.72;0.70;;;16.60;58.70;;;;;;5094781;28;20211;-44
2021/05/25 12:25:16;;;;;;;1.90;1.20;;;16.80;57.70;;;;;;5094905;28;20260;-42
2021/05/25 12:27:45;;;;;;;3.28;1.40;;;16.80;57.40;;;;;;5094566;28;20230;-43
2021/05/25 12:30:15;;;;;;;1.35;0.68;;;16.80;57.70;;;;;;5094583;28;20242;-46
2021/05/25 12:32:44;;;;;;;2.35;1.08;;;16.70;57.90;;;;;;5094387;28;20217;-43
2021/05/25 12:35:13;;;;;;;2.50;0.85;;;16.30;58.20;;;;;;5094274;28;20268;-44
2021/05/25 12:37:42;;;;;;;3.80;0.82;;;16.00;59.10;;;;;;5094200;28;20254;-43
2021/05/25 12:40:12;;;;;;;3.70;1.20;;;15.80;59.60;;;;;;5094314;28;20270;-42
2021/05/25 12:42:42;;;;;;;2.85;1.33;;;15.80;60.10;;;;;;5094260;28;20271;-41
2021/05/25 12:45:13;;;;;;;1.52;0.93;;;15.80;60.50;;;;;;5094098;28;20730;-41
2021/05/25 12:47:53;;;;;;;2.65;1.10;;;15.90;60.70;;;;;;5094350;28;20242;-41
2021/05/25 12:50:26;;;;;;;2.55;1.50;;;16.10;60.60;;;;;;5093996;28;20275;-41
2021/05/25 12:53:05;;;;;;;2.08;1.10;;;16.10;60.20;;;;;;5094612;28;20649;-41
2021/05/25 12:55:35;;;;;;;5.78;1.17;;;16.00;60.00;;;;;;5094248;28;20222;-41
2021/05/25 12:58:03;;;;;;;2.35;1.58;;;15.90;60.10;;;;;;5093316;28;20321;-42
2021/05/25 13:00:34;;;;;;;1.55;0.82;;;15.90;60.40;;;;;;5093999;28;20692;-42
2021/05/25 13:03:06;;;;;;;3.55;1.05;;;15.90;60.40;;;;;;5093851;28;20250;-41
2021/05/25 13:05:36;;;;;;;1.67;0.70;;;16.10;60.30;;;;;;5093749;28;20220;-43